<?xml version="1.0" encoding="UTF-8"?><gpx xmlns="http://www.topografix.com/GPX/1/1" xmlns:xsi="http://www.w3.org/2001/XMLSchema-instance" creator="komoot gpx writer" version="1.1" xsi:schemaLocation="http://www.topografix.com/GPX/1/1 http://www.topografix.com/GPX/1/1/gpx.xsd">

	<metadata>
		<name>Papiermuseum – Museo della Carta Runde von Maina Inferiore</name>
		<desc/>
		<link href="http://www.komoot.de">
			<text>komoot homepage</text>
			<type>text/html</type>
		</link>
	</metadata>
	
<wpt lat="45.649444580078125" lon="10.604722023010254">
<name/>
</wpt>
<wpt lat="45.646664" lon="10.606227">
<name/>
</wpt>
<trk>
<name>Papiermuseum – Museo della Carta Runde von Maina Inferiore</name>
<trkseg>
<trkpt lat="45.636112" lon="10.603677">
<ele>121.98361206054688</ele>
<time>2018-08-25T08:44:41Z</time>
</trkpt>
<trkpt lat="45.636196" lon="10.603594999999999">
<ele>121.76161206054688</ele>
<time>2018-08-25T08:44:55Z</time>
</trkpt>
<trkpt lat="45.636269999999996" lon="10.603495999999998">
<ele>121.89261206054688</ele>
<time>2018-08-25T08:45:04Z</time>
</trkpt>
<trkpt lat="45.63634" lon="10.603410999999998">
<ele>121.98361206054688</ele>
<time>2018-08-25T08:45:12Z</time>
</trkpt>
<trkpt lat="45.63643" lon="10.603331999999998">
<ele>121.67661206054687</ele>
<time>2018-08-25T08:45:19Z</time>
</trkpt>
<trkpt lat="45.636497" lon="10.603237999999997">
<ele>121.51061206054688</ele>
<time>2018-08-25T08:45:28Z</time>
</trkpt>
<trkpt lat="45.63657" lon="10.603148999999998">
<ele>121.27161206054687</ele>
<time>2018-08-25T08:45:37Z</time>
</trkpt>
<trkpt lat="45.636646" lon="10.603060999999999">
<ele>121.32461206054687</ele>
<time>2018-08-25T08:45:46Z</time>
</trkpt>
<trkpt lat="45.636703" lon="10.602948999999999">
<ele>121.50761206054688</ele>
<time>2018-08-25T08:45:52Z</time>
</trkpt>
<trkpt lat="45.636759999999995" lon="10.602825999999999">
<ele>121.84461206054688</ele>
<time>2018-08-25T08:46:05Z</time>
</trkpt>
<trkpt lat="45.636829999999996" lon="10.602723">
<ele>122.09461206054688</ele>
<time>2018-08-25T08:46:12Z</time>
</trkpt>
<trkpt lat="45.636886999999994" lon="10.602613999999999">
<ele>123.22961206054688</ele>
<time>2018-08-25T08:46:23Z</time>
</trkpt>
<trkpt lat="45.636962999999994" lon="10.602525">
<ele>124.37261206054689</ele>
<time>2018-08-25T08:46:33Z</time>
</trkpt>
<trkpt lat="45.63703999999999" lon="10.602435">
<ele>125.04261206054689</ele>
<time>2018-08-25T08:46:39Z</time>
</trkpt>
<trkpt lat="45.637103999999994" lon="10.60234">
<ele>126.13761206054689</ele>
<time>2018-08-25T08:46:46Z</time>
</trkpt>
<trkpt lat="45.637179999999994" lon="10.602257">
<ele>126.49461206054688</ele>
<time>2018-08-25T08:46:52Z</time>
</trkpt>
<trkpt lat="45.63722599999999" lon="10.602141">
<ele>127.05261206054689</ele>
<time>2018-08-25T08:47:01Z</time>
</trkpt>
<trkpt lat="45.63727599999999" lon="10.602022">
<ele>127.13861206054689</ele>
<time>2018-08-25T08:47:09Z</time>
</trkpt>
<trkpt lat="45.63733299999999" lon="10.601906">
<ele>127.22761206054689</ele>
<time>2018-08-25T08:47:15Z</time>
</trkpt>
<trkpt lat="45.63737499999999" lon="10.601782">
<ele>127.18261206054689</ele>
<time>2018-08-25T08:47:23Z</time>
</trkpt>
<trkpt lat="45.637435999999994" lon="10.601662">
<ele>126.75961206054689</ele>
<time>2018-08-25T08:47:32Z</time>
</trkpt>
<trkpt lat="45.637499999999996" lon="10.601574">
<ele>126.12661206054689</ele>
<time>2018-08-25T08:47:40Z</time>
</trkpt>
<trkpt lat="45.63757999999999" lon="10.601496">
<ele>125.53061206054689</ele>
<time>2018-08-25T08:47:46Z</time>
</trkpt>
<trkpt lat="45.63765299999999" lon="10.601417">
<ele>124.80261206054689</ele>
<time>2018-08-25T08:47:54Z</time>
</trkpt>
<trkpt lat="45.63778299999999" lon="10.601391999999999">
<ele>125.90561206054689</ele>
<time>2018-08-25T08:48:12Z</time>
</trkpt>
<trkpt lat="45.63784999999999" lon="10.601479999999999">
<ele>128.1896120605469</ele>
<time>2018-08-25T08:48:24Z</time>
</trkpt>
<trkpt lat="45.637859999999996" lon="10.601609999999999">
<ele>128.67561206054688</ele>
<time>2018-08-25T08:48:31Z</time>
</trkpt>
<trkpt lat="45.63793" lon="10.601700999999998">
<ele>127.94761206054689</ele>
<time>2018-08-25T08:48:39Z</time>
</trkpt>
<trkpt lat="45.638011999999996" lon="10.601785999999999">
<ele>127.60561206054689</ele>
<time>2018-08-25T08:48:46Z</time>
</trkpt>
<trkpt lat="45.638073" lon="10.601937">
<ele>127.76961206054689</ele>
<time>2018-08-25T08:48:56Z</time>
</trkpt>
<trkpt lat="45.638084" lon="10.602077">
<ele>128.28861206054688</ele>
<time>2018-08-25T08:49:07Z</time>
</trkpt>
<trkpt lat="45.638165" lon="10.602155">
<ele>129.9096120605469</ele>
<time>2018-08-25T08:49:25Z</time>
</trkpt>
<trkpt lat="45.63823" lon="10.602245">
<ele>129.96061206054688</ele>
<time>2018-08-25T08:49:33Z</time>
</trkpt>
<trkpt lat="45.638294" lon="10.602338">
<ele>130.23361206054688</ele>
<time>2018-08-25T08:49:40Z</time>
</trkpt>
<trkpt lat="45.63832" lon="10.602478999999999">
<ele>130.86761206054686</ele>
<time>2018-08-25T08:49:45Z</time>
</trkpt>
<trkpt lat="45.63834" lon="10.602612999999998">
<ele>130.87561206054687</ele>
<time>2018-08-25T08:49:48Z</time>
</trkpt>
<trkpt lat="45.638332" lon="10.602745999999998">
<ele>130.66461206054686</ele>
<time>2018-08-25T08:49:56Z</time>
</trkpt>
<trkpt lat="45.63831" lon="10.602882999999999">
<ele>130.51361206054685</ele>
<time>2018-08-25T08:50:04Z</time>
</trkpt>
<trkpt lat="45.638298" lon="10.603026999999999">
<ele>130.23761206054684</ele>
<time>2018-08-25T08:50:13Z</time>
</trkpt>
<trkpt lat="45.638306" lon="10.603157999999999">
<ele>130.09061206054685</ele>
<time>2018-08-25T08:50:21Z</time>
</trkpt>
<trkpt lat="45.638355" lon="10.603280999999999">
<ele>130.29361206054685</ele>
<time>2018-08-25T08:50:32Z</time>
</trkpt>
<trkpt lat="45.6384" lon="10.603401999999999">
<ele>130.73561206054686</ele>
<time>2018-08-25T08:50:38Z</time>
</trkpt>
<trkpt lat="45.638428" lon="10.603525">
<ele>130.97961206054686</ele>
<time>2018-08-25T08:50:48Z</time>
</trkpt>
<trkpt lat="45.638495999999996" lon="10.603610999999999">
<ele>131.09261206054686</ele>
<time>2018-08-25T08:50:52Z</time>
</trkpt>
<trkpt lat="45.638565" lon="10.603698">
<ele>134.00561206054687</ele>
<time>2018-08-25T08:51:10Z</time>
</trkpt>
<trkpt lat="45.638668" lon="10.604177">
<ele>134.67561206054685</ele>
<time>2018-08-25T08:51:54Z</time>
</trkpt>
<trkpt lat="45.63871" lon="10.604302">
<ele>134.12261206054686</ele>
<time>2018-08-25T08:51:59Z</time>
</trkpt>
<trkpt lat="45.638752000000004" lon="10.604427000000001">
<ele>133.21661206054685</ele>
<time>2018-08-25T08:52:05Z</time>
</trkpt>
<trkpt lat="45.63881000000001" lon="10.604528000000002">
<ele>132.02361206054684</ele>
<time>2018-08-25T08:52:14Z</time>
</trkpt>
<trkpt lat="45.638813000000006" lon="10.604668000000002">
<ele>131.50461206054683</ele>
<time>2018-08-25T08:52:24Z</time>
</trkpt>
<trkpt lat="45.638850000000005" lon="10.604795000000003">
<ele>131.32961206054682</ele>
<time>2018-08-25T08:52:30Z</time>
</trkpt>
<trkpt lat="45.63890500000001" lon="10.604903000000004">
<ele>131.7386120605468</ele>
<time>2018-08-25T08:52:38Z</time>
</trkpt>
<trkpt lat="45.63891600000001" lon="10.605042000000005">
<ele>131.0896120605468</ele>
<time>2018-08-25T08:52:48Z</time>
</trkpt>
<trkpt lat="45.63892400000001" lon="10.605175000000004">
<ele>130.7446120605468</ele>
<time>2018-08-25T08:52:57Z</time>
</trkpt>
<trkpt lat="45.63895000000001" lon="10.605308000000004">
<ele>130.15561206054682</ele>
<time>2018-08-25T08:53:06Z</time>
</trkpt>
<trkpt lat="45.63897300000001" lon="10.605435000000005">
<ele>130.0106120605468</ele>
<time>2018-08-25T08:53:12Z</time>
</trkpt>
<trkpt lat="45.639030000000005" lon="10.605543000000006">
<ele>130.1286120605468</ele>
<time>2018-08-25T08:53:17Z</time>
</trkpt>
<trkpt lat="45.63911" lon="10.605605000000006">
<ele>130.3646120605468</ele>
<time>2018-08-25T08:53:22Z</time>
</trkpt>
<trkpt lat="45.639103000000006" lon="10.605741000000005">
<ele>130.49961206054678</ele>
<time>2018-08-25T08:53:34Z</time>
</trkpt>
<trkpt lat="45.63909" lon="10.605874000000005">
<ele>130.33261206054678</ele>
<time>2018-08-25T08:53:42Z</time>
</trkpt>
<trkpt lat="45.63913" lon="10.606007000000005">
<ele>130.59361206054677</ele>
<time>2018-08-25T08:53:50Z</time>
</trkpt>
<trkpt lat="45.639175" lon="10.606126000000005">
<ele>131.90661206054676</ele>
<time>2018-08-25T08:54:00Z</time>
</trkpt>
<trkpt lat="45.639236000000004" lon="10.606242000000005">
<ele>132.71361206054675</ele>
<time>2018-08-25T08:54:06Z</time>
</trkpt>
<trkpt lat="45.639236000000004" lon="10.606382000000005">
<ele>133.41361206054674</ele>
<time>2018-08-25T08:54:13Z</time>
</trkpt>
<trkpt lat="45.639233000000004" lon="10.606519000000006">
<ele>133.17761206054675</ele>
<time>2018-08-25T08:54:19Z</time>
</trkpt>
<trkpt lat="45.63924" lon="10.606655000000005">
<ele>132.89561206054674</ele>
<time>2018-08-25T08:54:30Z</time>
</trkpt>
<trkpt lat="45.639297" lon="10.606763000000006">
<ele>133.43061206054674</ele>
<time>2018-08-25T08:54:39Z</time>
</trkpt>
<trkpt lat="45.63934" lon="10.606895000000007">
<ele>133.64561206054674</ele>
<time>2018-08-25T08:54:47Z</time>
</trkpt>
<trkpt lat="45.639378" lon="10.607039000000007">
<ele>133.69761206054673</ele>
<time>2018-08-25T08:54:55Z</time>
</trkpt>
<trkpt lat="45.639423" lon="10.607163000000007">
<ele>134.51461206054674</ele>
<time>2018-08-25T08:55:04Z</time>
</trkpt>
<trkpt lat="45.639492000000004" lon="10.607271000000008">
<ele>134.90461206054673</ele>
<time>2018-08-25T08:55:13Z</time>
</trkpt>
<trkpt lat="45.63955300000001" lon="10.607376000000007">
<ele>133.92361206054673</ele>
<time>2018-08-25T08:55:21Z</time>
</trkpt>
<trkpt lat="45.63962000000001" lon="10.607481000000007">
<ele>133.73661206054672</ele>
<time>2018-08-25T08:55:31Z</time>
</trkpt>
<trkpt lat="45.639694000000006" lon="10.607576000000007">
<ele>133.71461206054673</ele>
<time>2018-08-25T08:55:39Z</time>
</trkpt>
<trkpt lat="45.63975000000001" lon="10.607686000000006">
<ele>134.00761206054673</ele>
<time>2018-08-25T08:55:46Z</time>
</trkpt>
<trkpt lat="45.639812000000006" lon="10.607798000000006">
<ele>134.20261206054673</ele>
<time>2018-08-25T08:55:55Z</time>
</trkpt>
<trkpt lat="45.639908000000005" lon="10.607843000000006">
<ele>133.65461206054673</ele>
<time>2018-08-25T08:56:03Z</time>
</trkpt>
<trkpt lat="45.64000000000001" lon="10.607900000000006">
<ele>133.19861206054674</ele>
<time>2018-08-25T08:56:12Z</time>
</trkpt>
<trkpt lat="45.640083000000004" lon="10.607949000000007">
<ele>132.72461206054675</ele>
<time>2018-08-25T08:56:18Z</time>
</trkpt>
<trkpt lat="45.640167000000005" lon="10.608019000000006">
<ele>132.61161206054675</ele>
<time>2018-08-25T08:56:27Z</time>
</trkpt>
<trkpt lat="45.640247" lon="10.608083000000006">
<ele>132.47361206054674</ele>
<time>2018-08-25T08:56:37Z</time>
</trkpt>
<trkpt lat="45.640347000000006" lon="10.608126000000006">
<ele>132.45561206054674</ele>
<time>2018-08-25T08:56:45Z</time>
</trkpt>
<trkpt lat="45.640434000000006" lon="10.608182000000006">
<ele>131.86461206054673</ele>
<time>2018-08-25T08:56:53Z</time>
</trkpt>
<trkpt lat="45.64052000000001" lon="10.608244000000006">
<ele>130.90661206054673</ele>
<time>2018-08-25T08:57:08Z</time>
</trkpt>
<trkpt lat="45.64059000000001" lon="10.608323000000006">
<ele>131.96861206054675</ele>
<time>2018-08-25T08:57:19Z</time>
</trkpt>
<trkpt lat="45.64064800000001" lon="10.608428000000005">
<ele>132.44961206054674</ele>
<time>2018-08-25T08:57:30Z</time>
</trkpt>
<trkpt lat="45.64071300000001" lon="10.608521000000005">
<ele>132.11861206054675</ele>
<time>2018-08-25T08:57:41Z</time>
</trkpt>
<trkpt lat="45.64080000000001" lon="10.608570000000006">
<ele>131.53861206054674</ele>
<time>2018-08-25T08:57:50Z</time>
</trkpt>
<trkpt lat="45.64089000000001" lon="10.608610000000006">
<ele>131.16461206054674</ele>
<time>2018-08-25T08:57:58Z</time>
</trkpt>
<trkpt lat="45.640976000000016" lon="10.608660000000006">
<ele>131.49561206054673</ele>
<time>2018-08-25T08:58:06Z</time>
</trkpt>
<trkpt lat="45.64106800000002" lon="10.608702000000006">
<ele>131.60161206054673</ele>
<time>2018-08-25T08:58:18Z</time>
</trkpt>
<trkpt lat="45.64114000000002" lon="10.608803000000007">
<ele>131.89061206054672</ele>
<time>2018-08-25T08:58:27Z</time>
</trkpt>
<trkpt lat="45.64123000000002" lon="10.608839000000007">
<ele>131.9966120605467</ele>
<time>2018-08-25T08:58:35Z</time>
</trkpt>
<trkpt lat="45.64131000000002" lon="10.608898000000007">
<ele>132.7856120605467</ele>
<time>2018-08-25T08:58:46Z</time>
</trkpt>
<trkpt lat="45.64135700000002" lon="10.609013000000006">
<ele>132.7416120605467</ele>
<time>2018-08-25T08:58:54Z</time>
</trkpt>
<trkpt lat="45.64137600000002" lon="10.609142000000006">
<ele>132.6886120605467</ele>
<time>2018-08-25T08:59:04Z</time>
</trkpt>
<trkpt lat="45.641434000000025" lon="10.609243000000006">
<ele>132.94361206054668</ele>
<time>2018-08-25T08:59:12Z</time>
</trkpt>
<trkpt lat="45.641502000000024" lon="10.609341000000006">
<ele>133.2616120605467</ele>
<time>2018-08-25T08:59:21Z</time>
</trkpt>
<trkpt lat="45.64158200000002" lon="10.609397000000007">
<ele>132.8996120605467</ele>
<time>2018-08-25T08:59:29Z</time>
</trkpt>
<trkpt lat="45.64168000000002" lon="10.609427000000007">
<ele>132.0106120605467</ele>
<time>2018-08-25T08:59:38Z</time>
</trkpt>
<trkpt lat="45.64177000000002" lon="10.609466000000007">
<ele>130.30661206054668</ele>
<time>2018-08-25T08:59:53Z</time>
</trkpt>
<trkpt lat="45.64186000000002" lon="10.609467000000006">
<ele>131.13861206054668</ele>
<time>2018-08-25T09:00:02Z</time>
</trkpt>
<trkpt lat="45.64195600000002" lon="10.609439000000005">
<ele>132.29161206054667</ele>
<time>2018-08-25T09:00:14Z</time>
</trkpt>
<trkpt lat="45.64206000000002" lon="10.609396000000006">
<ele>133.07061206054667</ele>
<time>2018-08-25T09:00:20Z</time>
</trkpt>
<trkpt lat="45.64215000000002" lon="10.609337000000005">
<ele>133.13661206054667</ele>
<time>2018-08-25T09:00:26Z</time>
</trkpt>
<trkpt lat="45.64224600000002" lon="10.609308000000006">
<ele>133.36761206054666</ele>
<time>2018-08-25T09:00:37Z</time>
</trkpt>
<trkpt lat="45.64232300000002" lon="10.609242000000005">
<ele>134.52561206054665</ele>
<time>2018-08-25T09:00:47Z</time>
</trkpt>
<trkpt lat="45.64241000000002" lon="10.609179000000005">
<ele>135.61061206054666</ele>
<time>2018-08-25T09:00:56Z</time>
</trkpt>
<trkpt lat="45.64250000000002" lon="10.609141000000005">
<ele>136.65261206054666</ele>
<time>2018-08-25T09:01:04Z</time>
</trkpt>
<trkpt lat="45.64259300000002" lon="10.609080000000004">
<ele>137.15861206054666</ele>
<time>2018-08-25T09:01:13Z</time>
</trkpt>
<trkpt lat="45.64267700000002" lon="10.609011000000004">
<ele>138.53661206054664</ele>
<time>2018-08-25T09:01:23Z</time>
</trkpt>
<trkpt lat="45.64277600000002" lon="10.608983000000004">
<ele>139.03961206054663</ele>
<time>2018-08-25T09:01:32Z</time>
</trkpt>
<trkpt lat="45.64286800000002" lon="10.608948000000003">
<ele>139.25261206054662</ele>
<time>2018-08-25T09:01:40Z</time>
</trkpt>
<trkpt lat="45.643050000000024" lon="10.608938000000004">
<ele>144.84161206054662</ele>
<time>2018-08-25T09:04:09Z</time>
</trkpt>
<trkpt lat="45.64314700000002" lon="10.608923000000004">
<ele>144.71061206054662</ele>
<time>2018-08-25T09:04:18Z</time>
</trkpt>
<trkpt lat="45.64325000000002" lon="10.608947000000004">
<ele>145.7736120605466</ele>
<time>2018-08-25T09:04:28Z</time>
</trkpt>
<trkpt lat="45.64333300000002" lon="10.608891000000003">
<ele>146.18561206054662</ele>
<time>2018-08-25T09:04:35Z</time>
</trkpt>
<trkpt lat="45.64341700000002" lon="10.608820000000003">
<ele>146.1006120605466</ele>
<time>2018-08-25T09:04:42Z</time>
</trkpt>
<trkpt lat="45.64349700000002" lon="10.608743000000004">
<ele>146.2306120605466</ele>
<time>2018-08-25T09:04:50Z</time>
</trkpt>
<trkpt lat="45.64356600000002" lon="10.608648000000004">
<ele>145.7966120605466</ele>
<time>2018-08-25T09:04:55Z</time>
</trkpt>
<trkpt lat="45.64362000000002" lon="10.608537000000004">
<ele>144.4626120605466</ele>
<time>2018-08-25T09:05:27Z</time>
</trkpt>
<trkpt lat="45.64370700000002" lon="10.608477000000004">
<ele>144.68561206054662</ele>
<time>2018-08-25T09:05:33Z</time>
</trkpt>
<trkpt lat="45.64377200000002" lon="10.608373000000004">
<ele>141.79861206054662</ele>
<time>2018-08-25T09:06:12Z</time>
</trkpt>
<trkpt lat="45.64386400000002" lon="10.608356000000004">
<ele>141.66861206054662</ele>
<time>2018-08-25T09:06:20Z</time>
</trkpt>
<trkpt lat="45.64395500000002" lon="10.608338000000003">
<ele>142.24561206054662</ele>
<time>2018-08-25T09:06:38Z</time>
</trkpt>
<trkpt lat="45.64405400000002" lon="10.608310000000003">
<ele>140.93861206054663</ele>
<time>2018-08-25T09:06:53Z</time>
</trkpt>
<trkpt lat="45.64415000000002" lon="10.608269000000004">
<ele>141.08161206054663</ele>
<time>2018-08-25T09:07:03Z</time>
</trkpt>
<trkpt lat="45.64424500000002" lon="10.608232000000003">
<ele>141.15761206054663</ele>
<time>2018-08-25T09:07:12Z</time>
</trkpt>
<trkpt lat="45.64434400000002" lon="10.608197000000002">
<ele>140.95161206054664</ele>
<time>2018-08-25T09:07:21Z</time>
</trkpt>
<trkpt lat="45.644432000000016" lon="10.608184000000003">
<ele>140.73161206054664</ele>
<time>2018-08-25T09:07:42Z</time>
</trkpt>
<trkpt lat="45.64452400000002" lon="10.608151000000003">
<ele>141.63761206054664</ele>
<time>2018-08-25T09:07:48Z</time>
</trkpt>
<trkpt lat="45.64463000000002" lon="10.608121000000002">
<ele>143.36461206054665</ele>
<time>2018-08-25T09:07:55Z</time>
</trkpt>
<trkpt lat="45.64472000000002" lon="10.608090000000002">
<ele>143.72261206054665</ele>
<time>2018-08-25T09:08:05Z</time>
</trkpt>
<trkpt lat="45.64481000000002" lon="10.608062000000002">
<ele>143.89061206054666</ele>
<time>2018-08-25T09:08:14Z</time>
</trkpt>
<trkpt lat="45.64489700000002" lon="10.607990000000003">
<ele>142.43861206054666</ele>
<time>2018-08-25T09:08:21Z</time>
</trkpt>
<trkpt lat="45.64498500000002" lon="10.607926000000003">
<ele>141.02361206054667</ele>
<time>2018-08-25T09:08:29Z</time>
</trkpt>
<trkpt lat="45.64523700000002" lon="10.607893000000002">
<ele>136.97061206054667</ele>
<time>2018-08-25T09:09:40Z</time>
</trkpt>
<trkpt lat="45.64533000000002" lon="10.607861000000003">
<ele>137.84061206054668</ele>
<time>2018-08-25T09:09:51Z</time>
</trkpt>
<trkpt lat="45.64542000000002" lon="10.607829000000004">
<ele>138.77561206054668</ele>
<time>2018-08-25T09:10:01Z</time>
</trkpt>
<trkpt lat="45.645490000000024" lon="10.607702000000003">
<ele>138.58361206054667</ele>
<time>2018-08-25T09:10:19Z</time>
</trkpt>
<trkpt lat="45.645580000000024" lon="10.607657000000003">
<ele>137.73161206054667</ele>
<time>2018-08-25T09:10:28Z</time>
</trkpt>
<trkpt lat="45.64568000000003" lon="10.607341000000003">
<ele>140.00761206054668</ele>
<time>2018-08-25T09:11:04Z</time>
</trkpt>
<trkpt lat="45.64571000000003" lon="10.607213000000003">
<ele>140.78761206054668</ele>
<time>2018-08-25T09:11:12Z</time>
</trkpt>
<trkpt lat="45.64573000000003" lon="10.607084000000004">
<ele>141.10261206054668</ele>
<time>2018-08-25T09:11:21Z</time>
</trkpt>
<trkpt lat="45.64666400000003" lon="10.606227000000004">
<ele>135.65361206054666</ele>
<time>2018-08-25T09:13:25Z</time>
</trkpt>
<trkpt lat="45.64669400000003" lon="10.606094000000004">
<ele>136.48261206054667</ele>
<time>2018-08-25T09:13:34Z</time>
</trkpt>
<trkpt lat="45.646744000000034" lon="10.605984000000005">
<ele>138.07561206054666</ele>
<time>2018-08-25T09:13:42Z</time>
</trkpt>
<trkpt lat="45.646780000000035" lon="10.605856000000005">
<ele>140.27761206054666</ele>
<time>2018-08-25T09:13:51Z</time>
</trkpt>
<trkpt lat="45.646780000000035" lon="10.605713000000005">
<ele>141.63361206054665</ele>
<time>2018-08-25T09:13:58Z</time>
</trkpt>
<trkpt lat="45.64711400000004" lon="10.605187000000004">
<ele>150.33661206054666</ele>
<time>2018-08-25T09:14:41Z</time>
</trkpt>
<trkpt lat="45.647205000000035" lon="10.605146000000005">
<ele>156.60061206054667</ele>
<time>2018-08-25T09:14:49Z</time>
</trkpt>
<trkpt lat="45.64729700000004" lon="10.605208000000005">
<ele>161.21761206054666</ele>
<time>2018-08-25T09:14:59Z</time>
</trkpt>
<trkpt lat="45.647396000000036" lon="10.605242000000004">
<ele>174.17561206054665</ele>
<time>2018-08-25T09:15:12Z</time>
</trkpt>
<trkpt lat="45.647484000000034" lon="10.605298000000005">
<ele>184.65861206054666</ele>
<time>2018-08-25T09:15:27Z</time>
</trkpt>
<trkpt lat="45.64754500000004" lon="10.605409000000005">
<ele>180.71061206054665</ele>
<time>2018-08-25T09:15:47Z</time>
</trkpt>
<trkpt lat="45.64764000000004" lon="10.605410000000004">
<ele>166.25561206054664</ele>
<time>2018-08-25T09:16:24Z</time>
</trkpt>
<trkpt lat="45.64774700000004" lon="10.605416000000005">
<ele>164.82561206054663</ele>
<time>2018-08-25T09:16:29Z</time>
</trkpt>
<trkpt lat="45.64782000000004" lon="10.605491000000006">
<ele>162.12861206054663</ele>
<time>2018-08-25T09:16:36Z</time>
</trkpt>
<trkpt lat="45.64792300000004" lon="10.605470000000006">
<ele>156.95061206054663</ele>
<time>2018-08-25T09:16:57Z</time>
</trkpt>
<trkpt lat="45.64800300000004" lon="10.605534000000006">
<ele>153.64461206054662</ele>
<time>2018-08-25T09:17:14Z</time>
</trkpt>
<trkpt lat="45.648094000000036" lon="10.605489000000006">
<ele>152.46061206054662</ele>
<time>2018-08-25T09:17:22Z</time>
</trkpt>
<trkpt lat="45.648190000000035" lon="10.605502000000005">
<ele>151.4586120605466</ele>
<time>2018-08-25T09:17:30Z</time>
</trkpt>
<trkpt lat="45.648280000000035" lon="10.605490000000005">
<ele>150.4396120605466</ele>
<time>2018-08-25T09:17:38Z</time>
</trkpt>
<trkpt lat="45.648376000000034" lon="10.605423000000005">
<ele>150.3126120605466</ele>
<time>2018-08-25T09:17:41Z</time>
</trkpt>
<trkpt lat="45.648457000000036" lon="10.605355000000005">
<ele>150.7226120605466</ele>
<time>2018-08-25T09:17:53Z</time>
</trkpt>
<trkpt lat="45.648716000000036" lon="10.605363000000004">
<ele>146.71961206054658</ele>
<time>2018-08-25T09:18:58Z</time>
</trkpt>
<trkpt lat="45.64879600000003" lon="10.605279000000005">
<ele>147.19661206054658</ele>
<time>2018-08-25T09:19:01Z</time>
</trkpt>
<trkpt lat="45.648860000000035" lon="10.605173000000004">
<ele>147.6816120605466</ele>
<time>2018-08-25T09:19:03Z</time>
</trkpt>
<trkpt lat="45.64890300000003" lon="10.605038000000004">
<ele>148.5446120605466</ele>
<time>2018-08-25T09:19:07Z</time>
</trkpt>
<trkpt lat="45.648970000000034" lon="10.604948000000004">
<ele>149.8126120605466</ele>
<time>2018-08-25T09:19:12Z</time>
</trkpt>
<trkpt lat="45.64905500000003" lon="10.604893000000004">
<ele>150.9386120605466</ele>
<time>2018-08-25T09:19:18Z</time>
</trkpt>
<trkpt lat="45.649130000000035" lon="10.604816000000005">
<ele>151.88761206054662</ele>
<time>2018-08-25T09:19:27Z</time>
</trkpt>
<trkpt lat="45.649220000000035" lon="10.604783000000005">
<ele>152.21061206054662</ele>
<time>2018-08-25T09:19:33Z</time>
</trkpt>
<trkpt lat="45.64932000000004" lon="10.604757000000005">
<ele>152.2136120605466</ele>
<time>2018-08-25T09:19:41Z</time>
</trkpt>
<trkpt lat="45.649403000000035" lon="10.604693000000005">
<ele>151.7296120605466</ele>
<time>2018-08-25T09:19:51Z</time>
</trkpt>
<trkpt lat="45.64968000000003" lon="10.604614000000005">
<ele>154.35161206054659</ele>
<time>2018-08-25T09:21:38Z</time>
</trkpt>
<trkpt lat="45.64977600000003" lon="10.604607000000005">
<ele>157.1856120605466</ele>
<time>2018-08-25T09:21:49Z</time>
</trkpt>
<trkpt lat="45.64986000000003" lon="10.604534000000005">
<ele>158.5516120605466</ele>
<time>2018-08-25T09:21:59Z</time>
</trkpt>
<trkpt lat="45.64994400000003" lon="10.604473000000004">
<ele>159.23261206054661</ele>
<time>2018-08-25T09:22:09Z</time>
</trkpt>
<trkpt lat="45.649960000000036" lon="10.604327000000003">
<ele>158.51961206054662</ele>
<time>2018-08-25T09:22:29Z</time>
</trkpt>
<trkpt lat="45.649918000000035" lon="10.604198000000004">
<ele>157.76061206054663</ele>
<time>2018-08-25T09:22:40Z</time>
</trkpt>
<trkpt lat="45.64986800000003" lon="10.604083000000005">
<ele>156.91961206054663</ele>
<time>2018-08-25T09:22:52Z</time>
</trkpt>
<trkpt lat="45.649864000000036" lon="10.603955000000004">
<ele>156.50561206054664</ele>
<time>2018-08-25T09:23:06Z</time>
</trkpt>
<trkpt lat="45.64980700000004" lon="10.603859000000005">
<ele>152.96761206054663</ele>
<time>2018-08-25T09:23:37Z</time>
</trkpt>
</trkseg>
</trk>
</gpx>
